createdAt,value
2018-11-10T00:01:41.388Z,12.20
2018-11-10T00:04:10.456Z,11.57
2018-11-10T00:06:38.924Z,12.17
2018-11-10T00:09:08.188Z,10.67
2018-11-10T00:11:36.790Z,11.90
2018-11-10T00:14:07.713Z,13.50
2018-11-10T00:16:36.481Z,13.00
2018-11-10T00:19:04.870Z,14.63
2018-11-10T00:21:33.316Z,15.73
2018-11-10T00:24:01.767Z,15.93
2018-11-10T00:26:30.405Z,16.50
2018-11-10T00:28:59.021Z,15.33
2018-11-10T00:31:27.861Z,15.23
2018-11-10T00:33:56.603Z,16.37
2018-11-10T00:36:25.001Z,16.60
2018-11-10T00:38:53.872Z,15.00
2018-11-10T00:41:22.354Z,15.53
2018-11-10T00:43:50.796Z,16.20
2018-11-10T00:46:19.261Z,15.77
2018-11-10T00:48:47.784Z,15.90
2018-11-10T00:51:16.266Z,16.83
2018-11-10T00:53:44.759Z,16.80
2018-11-10T00:56:13.281Z,16.53
2018-11-10T00:58:41.738Z,17.13
2018-11-10T01:01:10.322Z,16.27
2018-11-10T01:03:39.443Z,15.20
2018-11-10T01:06:07.868Z,16.50
2018-11-10T01:08:36.335Z,15.63
2018-11-10T01:11:05.045Z,15.00
2018-11-10T01:13:33.433Z,13.87
2018-11-10T01:16:01.836Z,15.77
2018-11-10T01:18:30.248Z,13.67
2018-11-10T01:20:58.662Z,14.23
2018-11-10T01:23:27.855Z,14.60
2018-11-10T01:25:56.313Z,14.10
2018-11-10T01:28:24.717Z,15.13
2018-11-10T01:30:53.737Z,13.67
2018-11-10T01:33:22.175Z,14.63
2018-11-10T01:35:50.627Z,13.65
2018-11-10T01:38:19.200Z,14.43
2018-11-10T01:40:47.644Z,15.40
2018-11-10T01:43:16.243Z,14.67
2018-11-10T01:45:44.668Z,14.43
2018-11-10T01:48:13.126Z,13.77
2018-11-10T01:50:41.630Z,14.37
2018-11-10T01:53:13.177Z,13.90
2018-11-10T01:55:41.678Z,14.33
2018-11-10T01:58:10.127Z,15.10
2018-11-10T02:00:39.249Z,14.13
2018-11-10T02:03:07.677Z,14.87
2018-11-10T02:05:36.166Z,15.10
2018-11-10T02:08:05.034Z,14.90
2018-11-10T02:10:33.472Z,14.90
2018-11-10T02:13:02.266Z,13.33
2018-11-10T02:15:30.732Z,14.00
2018-11-10T02:17:59.158Z,13.97
2018-11-10T02:20:27.713Z,13.80
2018-11-10T02:22:56.368Z,13.53
2018-11-10T02:25:24.812Z,14.40
2018-11-10T02:27:53.288Z,12.80
2018-11-10T02:30:21.782Z,12.77
2018-11-10T02:32:50.335Z,14.07
2018-11-10T02:35:18.877Z,13.33
2018-11-10T02:37:47.298Z,11.53
2018-11-10T02:40:16.012Z,10.90
2018-11-10T02:42:45.213Z,11.33
2018-11-10T02:45:14.554Z,10.90
2018-11-10T02:47:43.846Z,10.23
2018-11-10T02:52:46.558Z,8.10
2018-11-10T02:55:14.964Z,6.63
2018-11-10T02:57:43.553Z,5.87
2018-11-10T03:00:13.303Z,5.10
2018-11-10T03:02:41.784Z,5.17
2018-11-10T03:05:10.998Z,4.83
2018-11-10T03:07:39.894Z,4.70
2018-11-10T03:10:09.875Z,4.57
2018-11-10T03:12:38.996Z,4.50
2018-11-10T03:15:09.200Z,4.33
2018-11-10T03:17:37.866Z,4.47
2018-11-10T03:20:09.505Z,3.85
2018-11-10T03:22:38.455Z,4.20
2018-11-10T03:25:07.111Z,3.87
2018-11-10T03:27:35.649Z,3.50
2018-11-10T03:30:04.138Z,3.70
2018-11-10T03:32:32.577Z,3.50
2018-11-10T03:35:00.971Z,4.20
2018-11-10T03:37:29.531Z,3.97
2018-11-10T03:39:57.940Z,3.80
2018-11-10T03:42:26.377Z,3.23
2018-11-10T03:44:54.782Z,3.90
2018-11-10T03:47:23.368Z,3.80
2018-11-10T03:49:51.848Z,3.43
2018-11-10T03:52:24.141Z,3.73
2018-11-10T03:54:52.550Z,3.37
2018-11-10T03:57:20.964Z,4.27
2018-11-10T03:59:49.331Z,3.53
2018-11-10T04:02:18.288Z,3.87
2018-11-10T04:04:46.711Z,3.33
2018-11-10T04:07:15.153Z,3.77
2018-11-10T04:09:44.421Z,2.90
2018-11-10T04:12:12.901Z,3.30
2018-11-10T04:14:41.292Z,3.23
2018-11-10T04:17:09.750Z,3.57
2018-11-10T04:19:38.143Z,3.30
2018-11-10T04:22:06.908Z,3.87
2018-11-10T04:24:36.148Z,3.50
2018-11-10T04:27:05.122Z,3.53
2018-11-10T04:29:33.525Z,3.27
2018-11-10T04:32:01.966Z,3.40
2018-11-10T04:34:30.374Z,3.30
2018-11-10T04:36:58.824Z,3.43
2018-11-10T04:39:27.421Z,3.30
2018-11-10T04:41:56.138Z,3.80
2018-11-10T04:44:26.774Z,4.43
2018-11-10T04:46:55.296Z,4.33
2018-11-10T04:49:23.712Z,4.43
2018-11-10T04:51:52.175Z,4.63
2018-11-10T04:54:20.711Z,4.80
2018-11-10T04:56:49.081Z,4.90
2018-11-10T04:59:17.478Z,5.30
2018-11-10T05:01:45.919Z,5.30
2018-11-10T05:04:14.377Z,5.50
2018-11-10T05:06:42.788Z,5.30
2018-11-10T05:09:11.794Z,5.33
2018-11-10T05:11:40.615Z,5.50
2018-11-10T05:14:09.233Z,5.60
2018-11-10T05:16:37.755Z,5.43
2018-11-10T05:19:06.484Z,5.80
2018-11-10T05:21:34.895Z,5.97
2018-11-10T05:24:03.571Z,6.00
2018-11-10T05:26:31.993Z,5.50
2018-11-10T05:29:00.375Z,5.80
2018-11-10T05:31:28.868Z,5.73
2018-11-10T05:33:57.306Z,6.43
2018-11-10T05:36:25.742Z,6.37
2018-11-10T05:38:54.139Z,5.53
2018-11-10T05:41:22.538Z,6.30
2018-11-10T05:43:52.354Z,6.70
2018-11-10T05:46:20.756Z,5.60
2018-11-10T05:48:52.967Z,6.27
2018-11-10T05:51:21.385Z,6.90
2018-11-10T05:53:49.820Z,6.07
2018-11-10T05:56:18.205Z,6.13
2018-11-10T05:58:46.845Z,7.63
2018-11-10T06:01:15.264Z,6.93
2018-11-10T06:03:43.788Z,20.17
2018-11-10T06:06:12.195Z,42.43
2018-11-10T06:08:40.600Z,7.33
2018-11-10T06:11:10.508Z,7.37
2018-11-10T06:13:39.044Z,7.77
2018-11-10T06:16:07.566Z,6.87
2018-11-10T06:18:36.040Z,6.90
2018-11-10T06:21:04.452Z,7.03
2018-11-10T06:23:32.873Z,7.13
2018-11-10T06:26:01.363Z,7.37
2018-11-10T06:28:29.814Z,7.00
2018-11-10T06:30:58.222Z,7.33
2018-11-10T06:33:26.632Z,7.57
2018-11-10T06:35:55.053Z,7.10
2018-11-10T06:38:23.475Z,7.20
2018-11-10T06:40:52.916Z,7.20
2018-11-10T06:43:21.357Z,7.33
2018-11-10T06:45:49.859Z,6.93
2018-11-10T06:48:18.382Z,7.00
2018-11-10T06:50:46.975Z,7.53
2018-11-10T06:53:15.374Z,6.97
2018-11-10T07:00:40.573Z,7.47
2018-11-10T07:03:08.993Z,6.97
2018-11-10T07:05:37.419Z,6.87
2018-11-10T07:08:06.706Z,6.63
2018-11-10T07:10:35.138Z,7.20
2018-11-10T07:13:03.571Z,7.30
2018-11-10T07:15:31.960Z,6.20
2018-11-10T07:18:00.453Z,6.23
2018-11-10T07:20:28.786Z,7.07
2018-11-10T07:22:57.244Z,6.40
2018-11-10T07:25:25.689Z,5.73
2018-11-10T07:27:54.960Z,6.50
2018-11-10T07:30:23.383Z,6.30
2018-11-10T07:32:51.839Z,6.23
2018-11-10T07:35:20.494Z,5.77
2018-11-10T07:37:48.940Z,5.57
2018-11-10T07:40:17.329Z,5.13
2018-11-10T07:42:46.113Z,4.43
2018-11-10T07:45:15.707Z,5.30
2018-11-10T07:47:44.941Z,4.87
2018-11-10T07:50:13.600Z,4.27
2018-11-10T07:52:42.777Z,4.90
2018-11-10T07:55:13.084Z,4.20
2018-11-10T08:00:16.664Z,3.97
2018-11-10T08:02:45.094Z,3.97
2018-11-10T08:05:14.387Z,3.22
2018-11-10T08:07:43.687Z,3.30
2018-11-10T08:10:12.902Z,3.27
2018-11-10T08:12:41.391Z,3.60
2018-11-10T08:17:46.750Z,3.10
2018-11-10T08:20:15.553Z,3.20
2018-11-10T08:22:44.000Z,3.00
2018-11-10T08:25:13.839Z,3.30
2018-11-10T08:27:42.439Z,3.13
2018-11-10T08:32:46.921Z,3.40
2018-11-10T08:35:15.653Z,3.00
2018-11-10T08:37:44.086Z,3.47
2018-11-10T08:40:14.626Z,3.27
2018-11-10T08:42:43.095Z,2.93
2018-11-10T08:45:12.876Z,2.80
2018-11-10T08:47:42.250Z,3.23
2018-11-10T08:52:45.954Z,2.60
2018-11-10T08:55:14.912Z,3.07
2018-11-10T08:57:43.821Z,2.83
2018-11-10T09:00:12.902Z,2.67
2018-11-10T09:02:41.425Z,2.90
2018-11-10T09:05:11.296Z,3.30
2018-11-10T09:07:39.868Z,2.90
2018-11-10T09:10:10.321Z,3.00
2018-11-10T09:12:38.827Z,3.60
2018-11-10T09:15:09.401Z,2.83
2018-11-10T09:17:37.929Z,2.87
2018-11-10T09:20:10.595Z,2.83
2018-11-10T09:22:39.234Z,11.07
2018-11-10T09:25:09.816Z,11.10
2018-11-10T09:27:39.294Z,2.67
2018-11-10T09:30:08.946Z,22.90
2018-11-10T09:32:40.694Z,2.47
2018-11-10T09:35:10.511Z,2.53
2018-11-10T09:37:39.186Z,10.03
2018-11-10T09:40:09.862Z,9.23
2018-11-10T09:42:38.744Z,3.20
2018-11-10T09:45:08.794Z,2.70
2018-11-10T09:47:37.811Z,4.37
2018-11-10T09:50:13.145Z,3.17
2018-11-10T09:52:42.174Z,12.07
2018-11-10T09:55:10.811Z,13.10
2018-11-10T09:57:39.484Z,2.63
2018-11-10T10:00:13.307Z,6.37
2018-11-10T10:02:42.228Z,10.03
2018-11-10T10:05:10.603Z,9.40
2018-11-10T10:07:39.992Z,2.10
2018-11-10T10:12:48.900Z,2.10
2018-11-10T10:15:18.369Z,2.20
2018-11-10T10:17:47.400Z,2.37
2018-11-10T10:20:18.614Z,2.13
2018-11-10T10:22:47.955Z,2.23
2018-11-10T10:25:17.304Z,1.77
2018-11-10T10:27:46.805Z,1.80
2018-11-10T10:30:17.452Z,1.40
2018-11-10T10:32:47.004Z,1.60
2018-11-10T10:35:16.027Z,1.20
2018-11-10T10:37:45.379Z,1.37
2018-11-10T10:40:14.441Z,1.10
2018-11-10T10:42:43.687Z,1.07
2018-11-10T10:45:19.823Z,1.10
2018-11-10T10:47:48.258Z,1.07
2018-11-10T10:50:18.162Z,1.00
2018-11-10T10:52:46.694Z,0.90
2018-11-10T10:55:16.392Z,1.03
2018-11-10T10:57:45.795Z,1.00
2018-11-10T11:04:02.283Z,1.00
2018-11-10T11:06:32.259Z,1.10
2018-11-10T11:09:00.725Z,1.10
2018-11-10T11:11:29.260Z,1.80
2018-11-10T11:14:00.765Z,1.50
2018-11-10T11:16:29.398Z,1.47
2018-11-10T11:18:57.973Z,1.60
2018-11-10T11:21:26.532Z,1.73
2018-11-10T11:23:54.949Z,2.33
2018-11-10T11:26:23.404Z,2.03
2018-11-10T11:28:51.928Z,2.30
2018-11-10T11:31:20.483Z,1.93
2018-11-10T11:33:49.249Z,2.37
2018-11-10T11:36:18.207Z,2.73
2018-11-10T11:38:46.633Z,2.60
2018-11-10T11:41:15.334Z,2.20
2018-11-10T11:43:43.876Z,2.07
2018-11-10T11:46:12.492Z,2.10
2018-11-10T11:48:41.165Z,2.17
2018-11-10T11:51:09.598Z,2.53
2018-11-10T11:53:38.174Z,2.20
2018-11-10T11:56:06.639Z,4.07
2018-11-10T11:58:35.138Z,3.00
2018-11-10T12:01:03.705Z,3.10
2018-11-10T12:03:32.168Z,3.60
2018-11-10T12:06:00.635Z,3.63
2018-11-10T12:08:29.714Z,2.20
2018-11-10T12:10:58.172Z,3.30
2018-11-10T12:13:26.663Z,2.17
2018-11-10T12:15:55.084Z,2.17
2018-11-10T12:18:23.484Z,2.40
2018-11-10T12:20:52.079Z,1.73
2018-11-10T12:23:20.893Z,7.03
2018-11-10T12:25:49.313Z,2.00
2018-11-10T12:28:17.815Z,1.73
2018-11-10T12:30:46.431Z,1.60
2018-11-10T12:33:14.900Z,1.40
2018-11-10T12:35:43.522Z,1.90
2018-11-10T12:38:12.010Z,2.00
2018-11-10T12:40:41.045Z,2.27
2018-11-10T12:43:09.485Z,1.70
2018-11-10T12:45:39.610Z,2.03
2018-11-10T12:48:08.321Z,3.40
2018-11-10T12:50:36.774Z,2.00
2018-11-10T12:53:05.413Z,1.87
2018-11-10T12:55:36.686Z,2.90
2018-11-10T12:58:05.666Z,1.60
2018-11-10T13:00:34.166Z,1.60
2018-11-10T13:03:02.593Z,2.00
2018-11-10T13:05:31.001Z,1.80
2018-11-10T13:07:59.575Z,1.70
2018-11-10T13:10:28.079Z,1.60
2018-11-10T13:12:56.559Z,1.90
2018-11-10T13:15:25.042Z,1.97
2018-11-10T13:17:53.666Z,2.10
2018-11-10T13:20:22.134Z,11.97
2018-11-10T13:22:50.651Z,2.00
2018-11-10T13:25:19.269Z,1.80
2018-11-10T13:27:47.715Z,1.60
2018-11-10T13:30:16.827Z,1.73
2018-11-10T13:32:45.550Z,2.03
2018-11-10T13:35:13.986Z,1.90
2018-11-10T13:37:42.441Z,1.30
2018-11-10T13:40:11.363Z,1.60
2018-11-10T13:42:39.802Z,1.60
2018-11-10T13:45:10.270Z,1.80
2018-11-10T13:47:38.883Z,1.63
2018-11-10T13:50:09.621Z,1.50
2018-11-10T13:52:38.967Z,2.00
2018-11-10T13:55:07.234Z,2.40
2018-11-10T13:57:35.664Z,3.07
2018-11-10T14:00:05.254Z,3.30
2018-11-10T14:02:33.685Z,3.20
2018-11-10T14:05:02.320Z,3.97
2018-11-10T14:07:30.915Z,4.33
2018-11-10T14:09:59.351Z,5.17
2018-11-10T14:12:27.991Z,5.70
2018-11-10T14:14:56.486Z,5.63
2018-11-10T14:17:25.225Z,6.50
2018-11-10T14:19:53.860Z,6.00
2018-11-10T14:22:22.283Z,6.37
2018-11-10T14:24:50.839Z,7.30
2018-11-10T14:27:19.469Z,6.90
2018-11-10T14:29:48.013Z,7.30
2018-11-10T14:32:16.476Z,7.23
2018-11-10T14:34:44.921Z,7.63
2018-11-10T14:37:13.345Z,7.43
2018-11-10T14:39:41.777Z,8.23
2018-11-10T14:42:10.540Z,7.53
2018-11-10T14:44:39.021Z,7.63
2018-11-10T14:47:07.473Z,7.80
2018-11-10T14:49:36.000Z,7.57
2018-11-10T14:52:04.861Z,7.40
2018-11-10T14:54:33.235Z,7.27
2018-11-10T14:59:36.379Z,7.97
2018-11-10T15:02:05.346Z,7.67
2018-11-10T15:04:33.819Z,6.87
2018-11-10T15:07:02.383Z,6.40
2018-11-10T15:09:30.945Z,6.40
2018-11-10T15:12:01.607Z,5.83
2018-11-10T15:14:29.986Z,5.00
2018-11-10T15:16:58.557Z,4.40
2018-11-10T15:19:26.989Z,4.27
2018-11-10T15:21:55.436Z,3.23
2018-11-10T15:24:26.201Z,3.03
2018-11-10T15:26:54.668Z,2.20
2018-11-10T15:29:23.393Z,2.00
2018-11-10T15:31:52.669Z,2.13
2018-11-10T15:34:21.298Z,2.00
2018-11-10T15:36:49.821Z,2.17
2018-11-10T15:39:18.365Z,1.70
2018-11-10T15:41:46.890Z,1.43
2018-11-10T15:44:15.498Z,1.40
2018-11-10T15:46:44.013Z,1.40
2018-11-10T15:49:12.434Z,1.73
2018-11-10T15:51:40.896Z,1.67
2018-11-10T15:54:09.347Z,1.50
2018-11-10T15:56:37.772Z,1.43
2018-11-10T15:59:06.343Z,1.10
2018-11-10T16:01:34.770Z,1.70
2018-11-10T16:04:03.213Z,1.40
2018-11-10T16:06:31.786Z,1.30
2018-11-10T16:09:00.394Z,1.40
2018-11-10T16:11:28.911Z,1.40
2018-11-10T16:13:57.326Z,1.53
2018-11-10T16:16:26.021Z,1.50
2018-11-10T16:19:01.511Z,1.50
2018-11-10T16:21:30.062Z,1.50
2018-11-10T16:23:58.584Z,1.67
2018-11-10T16:26:27.258Z,1.57
2018-11-10T16:28:55.817Z,1.30
2018-11-10T16:31:24.936Z,1.30
2018-11-10T16:33:53.383Z,1.50
2018-11-10T16:36:21.801Z,1.73
2018-11-10T16:38:50.528Z,1.37
2018-11-10T16:41:19.132Z,1.40
2018-11-10T16:43:47.576Z,1.57
2018-11-10T16:46:16.116Z,1.50
2018-11-10T16:48:44.714Z,1.37
2018-11-10T16:51:16.540Z,1.20
2018-11-10T16:53:44.976Z,1.63
2018-11-10T16:56:13.425Z,1.30
2018-11-10T16:58:41.947Z,2.03
2018-11-10T17:01:10.442Z,1.70
2018-11-10T17:03:38.904Z,1.80
2018-11-10T17:06:07.326Z,2.50
2018-11-10T17:08:35.772Z,2.10
2018-11-10T17:11:04.213Z,1.80
2018-11-10T17:13:32.668Z,2.27
2018-11-10T17:16:01.213Z,2.00
2018-11-10T17:18:29.793Z,1.93
2018-11-10T17:21:01.007Z,2.23
2018-11-10T17:23:29.530Z,3.33
2018-11-10T17:25:57.936Z,2.87
2018-11-10T17:28:26.472Z,2.87
2018-11-10T17:30:56.924Z,3.20
2018-11-10T17:33:25.511Z,3.03
2018-11-10T17:35:54.088Z,3.07
2018-11-10T17:38:22.633Z,3.40
2018-11-10T17:40:51.074Z,3.90
2018-11-10T17:43:19.516Z,3.40
2018-11-10T17:45:48.042Z,3.40
2018-11-10T17:48:16.560Z,3.23
2018-11-10T17:50:45.033Z,3.60
2018-11-10T17:53:13.542Z,3.00
2018-11-10T17:55:42.173Z,2.83
2018-11-10T17:58:10.722Z,2.90
2018-11-10T18:00:39.131Z,2.73
2018-11-10T18:03:07.703Z,2.10
2018-11-10T18:05:36.178Z,2.20
2018-11-10T18:08:04.657Z,2.10
2018-11-10T18:10:33.225Z,2.43
2018-11-10T18:13:01.914Z,2.00
2018-11-10T18:15:30.392Z,2.37
2018-11-10T18:17:58.813Z,2.90
2018-11-10T18:20:27.252Z,2.63
2018-11-10T18:22:55.714Z,2.00
2018-11-10T18:25:24.267Z,2.67
2018-11-10T18:27:52.627Z,2.40
2018-11-10T18:30:21.154Z,2.73
2018-11-10T18:32:49.692Z,2.93
2018-11-10T18:35:18.144Z,2.10
2018-11-10T18:37:50.663Z,2.20
2018-11-10T18:40:19.075Z,2.27
2018-11-10T18:42:47.524Z,2.07
2018-11-10T18:45:16.074Z,2.23
2018-11-10T18:47:44.562Z,2.20
2018-11-10T18:50:14.310Z,2.10
2018-11-10T18:52:43.125Z,2.30
2018-11-10T18:55:12.266Z,2.43
2018-11-10T18:57:40.953Z,3.23
2018-11-10T19:00:11.886Z,2.83
2018-11-10T19:02:41.153Z,2.40
2018-11-10T19:05:11.481Z,2.20
2018-11-10T19:07:40.281Z,2.13
2018-11-10T19:10:11.132Z,1.90
2018-11-10T19:12:40.071Z,2.23
2018-11-10T19:15:11.016Z,3.03
2018-11-10T19:20:14.506Z,2.33
2018-11-10T19:22:43.664Z,2.40
2018-11-10T19:25:13.897Z,2.10
2018-11-10T19:27:42.534Z,2.63
2018-11-10T19:30:19.477Z,2.50
2018-11-10T19:32:48.848Z,2.50
2018-11-10T19:35:18.271Z,2.53
2018-11-10T19:37:47.114Z,3.50
2018-11-10T19:40:15.662Z,3.40
2018-11-10T19:42:45.277Z,10.57
2018-11-10T19:45:13.795Z,13.03
2018-11-10T19:47:44.155Z,39.87
2018-11-10T19:50:13.434Z,19.10
2018-11-10T19:52:41.953Z,6.03
2018-11-10T19:55:13.023Z,3.33
2018-11-10T19:57:41.690Z,4.40
2018-11-10T20:00:12.746Z,4.07
2018-11-10T20:02:41.378Z,6.07
2018-11-10T20:07:44.257Z,4.27
2018-11-10T20:10:13.189Z,5.43
2018-11-10T20:12:42.293Z,5.27
2018-11-10T20:15:12.393Z,4.87
2018-11-10T20:17:41.642Z,4.53
2018-11-10T20:20:11.208Z,4.47
2018-11-10T20:22:39.967Z,5.00
2018-11-10T20:25:10.772Z,4.50
2018-11-10T20:27:39.349Z,3.70
2018-11-10T20:30:11.298Z,4.37
2018-11-10T20:32:39.904Z,3.53
2018-11-10T20:35:09.928Z,3.90
2018-11-10T20:37:39.008Z,3.60
2018-11-10T20:40:08.872Z,3.37
2018-11-10T20:42:43.729Z,2.80
2018-11-10T20:45:14.694Z,2.80
2018-11-10T20:47:43.381Z,2.60
2018-11-10T20:50:12.484Z,3.20
2018-11-10T20:52:41.193Z,2.80
2018-11-10T20:55:10.867Z,2.60
2018-11-10T20:57:39.836Z,2.00
2018-11-10T21:00:10.809Z,2.57
2018-11-10T21:02:40.299Z,2.60
2018-11-10T21:05:10.123Z,2.33
2018-11-10T21:07:38.959Z,2.30
2018-11-10T21:10:09.503Z,2.10
2018-11-10T21:12:38.793Z,2.27
2018-11-10T21:15:08.967Z,2.03
2018-11-10T21:17:37.960Z,1.83
2018-11-10T21:20:08.675Z,2.12
2018-11-10T21:22:37.156Z,2.20
2018-11-10T21:25:08.417Z,2.30
2018-11-10T21:27:42.236Z,2.30
2018-11-10T21:30:13.021Z,2.27
2018-11-10T21:32:42.603Z,2.10
2018-11-10T21:35:11.401Z,2.37
2018-11-10T21:37:40.078Z,3.13
2018-11-10T21:40:12.194Z,2.03
2018-11-10T21:42:41.821Z,2.07
2018-11-10T21:45:11.634Z,2.03
2018-11-10T21:47:41.734Z,1.80
2018-11-10T21:50:12.977Z,1.77
2018-11-10T21:52:42.762Z,2.10
2018-11-10T21:55:12.942Z,1.50
2018-11-10T21:57:41.745Z,1.90
2018-11-10T22:00:12.581Z,2.10
2018-11-10T22:02:42.214Z,2.27
2018-11-10T22:05:10.983Z,2.10
2018-11-10T22:07:39.799Z,2.30
2018-11-10T22:10:11.625Z,3.00
2018-11-10T22:12:40.804Z,2.40
2018-11-10T22:15:12.114Z,2.50
2018-11-10T22:17:41.485Z,2.00
2018-11-10T22:20:12.055Z,1.87
2018-11-10T22:22:40.885Z,2.30
2018-11-10T22:25:10.473Z,2.13
2018-11-10T22:27:40.475Z,1.90
2018-11-10T22:30:10.989Z,2.07
2018-11-10T22:32:39.653Z,1.73
2018-11-10T22:35:08.916Z,1.60
2018-11-10T22:37:37.472Z,1.70
2018-11-10T22:40:08.449Z,1.72
2018-11-10T22:42:37.793Z,1.70
2018-11-10T22:45:07.854Z,1.75
2018-11-10T22:47:36.561Z,1.80
2018-11-10T22:50:06.685Z,1.57
2018-11-10T22:52:35.507Z,1.57
2018-11-10T22:55:03.992Z,2.00
2018-11-10T22:57:32.807Z,1.60
2018-11-10T23:00:01.286Z,1.50
2018-11-10T23:02:29.763Z,1.40
2018-11-10T23:04:58.286Z,1.53
2018-11-10T23:07:26.734Z,1.50
2018-11-10T23:09:55.240Z,1.50
2018-11-10T23:12:24.065Z,1.53
2018-11-10T23:14:52.559Z,1.30
2018-11-10T23:17:21.122Z,4.03
2018-11-10T23:19:49.535Z,1.60
2018-11-10T23:22:17.972Z,1.80
2018-11-10T23:24:46.481Z,1.67
2018-11-10T23:27:14.920Z,1.60
2018-11-10T23:29:43.432Z,1.60
2018-11-10T23:32:11.826Z,1.40
2018-11-10T23:34:40.231Z,1.40
2018-11-10T23:37:08.709Z,1.65
2018-11-10T23:39:37.128Z,1.40
2018-11-10T23:42:05.965Z,1.67
2018-11-10T23:44:34.446Z,1.47
2018-11-10T23:47:02.845Z,1.70
2018-11-10T23:49:31.260Z,1.73
2018-11-10T23:51:59.701Z,1.30
2018-11-10T23:54:28.187Z,1.13
2018-11-10T23:56:56.871Z,1.30
2018-11-10T23:59:25.286Z,1.33
